Ship Status Report: callsign GCOZ

sailwx.info

Track history (hours):
 
Tides and Currents Weather Stations Pressure Air Temp Water Temp Dewpoint Dewpoint Depression Visibility Wind Speed Wind Dir Waves Ship Positions

Callsign GCOZ (name unknown)

Last reported at 2017-May-29 16:00 UTC. Time now 2017-May-30 05:28 UTC.
Position N 55°59' E 015°34'.

Date/timePositionNaut miles runAvg speedWind from/ knotsBaromVisibWave heightAir tempDewpointWater temp
2017-May-29 16:00N 55°59' E 015°34'0 0.3
2017-May-29 15:30N 55°59' E 015°33'0 0.1
2017-May-29 15:00N 55°59' E 015°33'0 0.6
2017-May-29 14:30N 55°59' E 015°34'1 0.9
2017-May-29 13:30N 55°60' E 015°36'0 0.4
2017-May-29 13:00N 55°60' E 015°36'0 0.6
2017-May-29 12:30N 55°60' E 015°36'0 0.4
2017-May-29 12:00N 55°60' E 015°37'  
2017-May-26 03:30N 55°44' E 015°57'794106.5
2017-May-25 20:03N 50°22' W 004°11'0 0.0
2017-May-25 20:00N 50°22' W 004°11'0 0.1
2017-May-25 19:30N 50°22' W 004°11'2 3.8
2017-May-25 18:58N 50°20' W 004°10'5 6.2
2017-May-25 18:08N 50°15' W 004°10'1 8.8
2017-May-25 18:00N 50°14' W 004°12'3 5.8
2017-May-25 17:24N 50°15' W 004°17'3 7.9
2017-May-25 17:00N 50°13' W 004°13'1 1.3
2017-May-25 16:30N 50°13' W 004°13'1 1.7
2017-May-25 15:58N 50°13' W 004°14'5 9.2
2017-May-25 15:25N 50°18' W 004°12'3 5.5
2017-May-25 14:57N 50°20' W 004°10'1 0.0
2017-May-24 20:21N 50°20' W 004°11'0 0.0
2017-May-24 20:00N 50°20' W 004°11'0 0.0
2017-May-24 19:30N 50°20' W 004°11'  
Track history (hours):
 
Tides and Currents Weather Stations Pressure Air Temp Water Temp Dewpoint Dewpoint Depression Visibility Wind Speed Wind Dir Waves Ship Positions

Callsign GCOZ (name unknown)

Last reported at 2017-May-29 16:00 UTC. Time now 2017-May-30 05:28 UTC.
Position N 55°59' E 015°34'.

Date/timePositionNaut miles runAvg speedWind from/ knotsBaromVisibWave heightAir tempDewpointWater temp
2017-May-29 16:00N 55°59' E 015°34'0 0.3
2017-May-29 15:30N 55°59' E 015°33'0 0.1
2017-May-29 15:00N 55°59' E 015°33'0 0.6
2017-May-29 14:30N 55°59' E 015°34'1 0.9
2017-May-29 13:30N 55°60' E 015°36'0 0.4
2017-May-29 13:00N 55°60' E 015°36'0 0.6
2017-May-29 12:30N 55°60' E 015°36'0 0.4
2017-May-29 12:00N 55°60' E 015°37'  
2017-May-26 03:30N 55°44' E 015°57'794106.5
2017-May-25 20:03N 50°22' W 004°11'0 0.0
2017-May-25 20:00N 50°22' W 004°11'0 0.1
2017-May-25 19:30N 50°22' W 004°11'2 3.8
2017-May-25 18:58N 50°20' W 004°10'5 6.2
2017-May-25 18:08N 50°15' W 004°10'1 8.8
2017-May-25 18:00N 50°14' W 004°12'3 5.8
2017-May-25 17:24N 50°15' W 004°17'3 7.9
2017-May-25 17:00N 50°13' W 004°13'1 1.3
2017-May-25 16:30N 50°13' W 004°13'1 1.7
2017-May-25 15:58N 50°13' W 004°14'5 9.2
2017-May-25 15:25N 50°18' W 004°12'3 5.5
2017-May-25 14:57N 50°20' W 004°10'1 0.0
2017-May-24 20:21N 50°20' W 004°11'0 0.0
2017-May-24 20:00N 50°20' W 004°11'0 0.0
2017-May-24 19:30N 50°20' W 004°11'  

Dump ship's entire track history